YMA56A KRNO-KPDX
Flight info
| Callsign | YMA56A |
|---|---|
| Flight time | 1h 11m |
| Altitude | 36000 |
| Route | ZEFFR9 BLKJK WNDEL J92 LMT OCITY3 |
| Aircraft | A359/H-SDE2E3GHIJ3J4J5LM1ORWXY/LB1D1 |
Departure
| Time | 2026-05-07 09:38 |
|---|---|
| Airport | Reno Tahoe International Airport (KRNO) |
Arrival
| Time | 2026-05-07 10:50 |
|---|---|
| Airport | Portland International Airport (KPDX) |
| Time | Latitude | Longitude | Altitude | Speed | Heading |
|---|---|---|---|---|---|
| 2026-05-07 09:19 | 39.50965 | -119.77300 | 4448 ft | 0 kts | 330° |
| 2026-05-07 09:27 | 39.50952 | -119.77290 | 4448 ft | 4 kts | 329° |
| 2026-05-07 09:28 | 39.50939 | -119.77280 | 4448 ft | 1 kts | 4° |
| 2026-05-07 09:28 | 39.50932 | -119.77282 | 4448 ft | 1 kts | 55° |
| 2026-05-07 09:28 | 39.50929 | -119.77297 | 4448 ft | 3 kts | 82° |
| 2026-05-07 09:28 | 39.50927 | -119.77310 | 4448 ft | 0 kts | 81° |
| 2026-05-07 09:29 | 39.50927 | -119.77311 | 4448 ft | 0 kts | 81° |
| 2026-05-07 09:29 | 39.50928 | -119.77309 | 4448 ft | 0 kts | 81° |
| 2026-05-07 09:30 | 39.50928 | -119.77308 | 4448 ft | 0 kts | 81° |
| 2026-05-07 09:30 | 39.50928 | -119.77307 | 4448 ft | 0 kts | 81° |
| 2026-05-07 09:31 | 39.50929 | -119.77300 | 4447 ft | 0 kts | 81° |
| 2026-05-07 09:32 | 39.50929 | -119.77299 | 4447 ft | 2 kts | 81° |
| 2026-05-07 09:32 | 39.50931 | -119.77256 | 4447 ft | 0 kts | 89° |
| 2026-05-07 09:32 | 39.50931 | -119.77248 | 4447 ft | 2 kts | 90° |
| 2026-05-07 09:33 | 39.50930 | -119.77190 | 4446 ft | 6 kts | 91° |
| 2026-05-07 09:33 | 39.50948 | -119.77166 | 4445 ft | 9 kts | 29° |
| 2026-05-07 09:33 | 39.51012 | -119.77153 | 4446 ft | 9 kts | 2° |
| 2026-05-07 09:33 | 39.51062 | -119.77149 | 4447 ft | 5 kts | 12° |
| 2026-05-07 09:34 | 39.51084 | -119.77135 | 4447 ft | 5 kts | 37° |
| 2026-05-07 09:34 | 39.51103 | -119.77085 | 4447 ft | 6 kts | 87° |
| 2026-05-07 09:34 | 39.51104 | -119.77057 | 4447 ft | 6 kts | 89° |
| 2026-05-07 09:34 | 39.51105 | -119.76954 | 4447 ft | 17 kts | 90° |
| 2026-05-07 09:35 | 39.51104 | -119.76824 | 4445 ft | 0 kts | 91° |
| 2026-05-07 09:36 | 39.51104 | -119.76820 | 4445 ft | 3 kts | 92° |
| 2026-05-07 09:37 | 39.51103 | -119.76791 | 4444 ft | 5 kts | 92° |
| 2026-05-07 09:37 | 39.51095 | -119.76707 | 4444 ft | 13 kts | 116° |
| 2026-05-07 09:37 | 39.51031 | -119.76671 | 4444 ft | 9 kts | 184° |
| 2026-05-07 09:37 | 39.50753 | -119.76676 | 4441 ft | 77 kts | 179° |
| 2026-05-07 09:38 | 39.49995 | -119.76665 | 4437 ft | 139 kts | 181° |
| 2026-05-07 09:38 | 39.48849 | -119.76681 | 4529 ft | 183 kts | 180° |
| 2026-05-07 09:38 | 39.47594 | -119.76695 | 5232 ft | 181 kts | 182° |
| 2026-05-07 09:38 | 39.46369 | -119.76831 | 5883 ft | 180 kts | 184° |
| 2026-05-07 09:39 | 39.45115 | -119.76906 | 6426 ft | 185 kts | 182° |
| 2026-05-07 09:39 | 39.43783 | -119.76958 | 6776 ft | 199 kts | 182° |
| 2026-05-07 09:39 | 39.42352 | -119.76986 | 7115 ft | 214 kts | 180° |
| 2026-05-07 09:39 | 39.40806 | -119.76986 | 7437 ft | 229 kts | 180° |
| 2026-05-07 09:40 | 39.39161 | -119.76985 | 7729 ft | 245 kts | 180° |
| 2026-05-07 09:40 | 39.37412 | -119.76987 | 8070 ft | 261 kts | 180° |
| 2026-05-07 09:40 | 39.35530 | -119.76990 | 8551 ft | 280 kts | 180° |
| 2026-05-07 09:40 | 39.33562 | -119.76877 | 9248 ft | 290 kts | 167° |
| 2026-05-07 09:41 | 39.31759 | -119.75753 | 10048 ft | 294 kts | 139° |
| 2026-05-07 09:41 | 39.30513 | -119.73705 | 10850 ft | 296 kts | 119° |
| 2026-05-07 09:41 | 39.29517 | -119.71365 | 11557 ft | 303 kts | 117° |
| 2026-05-07 09:41 | 39.28541 | -119.68945 | 12236 ft | 309 kts | 112° |
| 2026-05-07 09:42 | 39.28081 | -119.66206 | 12677 ft | 323 kts | 86° |
| 2026-05-07 09:42 | 39.28596 | -119.63379 | 13114 ft | 333 kts | 61° |
| 2026-05-07 09:42 | 39.29896 | -119.60858 | 13562 ft | 345 kts | 52° |
| 2026-05-07 09:42 | 39.31336 | -119.58334 | 14009 ft | 357 kts | 52° |
| 2026-05-07 09:43 | 39.32806 | -119.55722 | 14704 ft | 361 kts | 52° |
| 2026-05-07 09:43 | 39.34268 | -119.53115 | 15421 ft | 363 kts | 50° |
| 2026-05-07 09:43 | 39.35874 | -119.50601 | 16124 ft | 365 kts | 45° |
| 2026-05-07 09:43 | 39.37637 | -119.48262 | 16810 ft | 367 kts | 41° |
| 2026-05-07 09:44 | 39.39502 | -119.46005 | 17514 ft | 370 kts | 40° |
| 2026-05-07 09:44 | 39.41400 | -119.43741 | 18189 ft | 373 kts | 40° |
| 2026-05-07 09:44 | 39.43301 | -119.41474 | 18863 ft | 375 kts | 40° |
| 2026-05-07 09:44 | 39.45220 | -119.39190 | 19510 ft | 377 kts | 38° |
| 2026-05-07 09:45 | 39.47401 | -119.37402 | 20038 ft | 377 kts | 18° |
| 2026-05-07 09:45 | 39.49939 | -119.36694 | 20683 ft | 375 kts | 360° |
| 2026-05-07 09:45 | 39.52506 | -119.37104 | 21301 ft | 375 kts | 341° |
| 2026-05-07 09:45 | 39.54849 | -119.38607 | 21907 ft | 378 kts | 323° |
| 2026-05-07 09:46 | 39.56870 | -119.40740 | 22520 ft | 381 kts | 320° |
| 2026-05-07 09:46 | 39.58911 | -119.42972 | 23092 ft | 384 kts | 320° |
| 2026-05-07 09:46 | 39.60936 | -119.45190 | 23690 ft | 387 kts | 320° |
| 2026-05-07 09:46 | 39.63003 | -119.47451 | 24257 ft | 390 kts | 320° |
| 2026-05-07 09:47 | 39.65067 | -119.49704 | 24766 ft | 394 kts | 321° |
| 2026-05-07 09:47 | 39.67179 | -119.52008 | 25270 ft | 397 kts | 321° |
| 2026-05-07 09:47 | 39.69294 | -119.54314 | 25757 ft | 401 kts | 321° |
| 2026-05-07 09:47 | 39.71429 | -119.56642 | 26223 ft | 404 kts | 321° |
| 2026-05-07 09:48 | 39.73577 | -119.58986 | 26685 ft | 407 kts | 321° |
| 2026-05-07 09:48 | 39.75733 | -119.61338 | 27116 ft | 410 kts | 321° |
| 2026-05-07 09:48 | 39.77917 | -119.63724 | 27540 ft | 413 kts | 321° |
| 2026-05-07 09:48 | 39.80118 | -119.66130 | 27963 ft | 416 kts | 321° |
| 2026-05-07 09:49 | 39.82347 | -119.68568 | 28366 ft | 419 kts | 321° |
| 2026-05-07 09:49 | 39.84560 | -119.70991 | 28750 ft | 422 kts | 321° |
| 2026-05-07 09:49 | 39.86801 | -119.73448 | 29125 ft | 424 kts | 321° |
| 2026-05-07 09:49 | 39.89051 | -119.75916 | 29501 ft | 426 kts | 321° |
| 2026-05-07 09:50 | 39.91317 | -119.78405 | 29868 ft | 429 kts | 321° |
| 2026-05-07 09:50 | 39.93609 | -119.80924 | 30239 ft | 431 kts | 321° |
| 2026-05-07 09:50 | 39.95896 | -119.83439 | 30585 ft | 433 kts | 321° |
| 2026-05-07 09:50 | 39.98181 | -119.85955 | 30902 ft | 435 kts | 321° |
| 2026-05-07 09:51 | 40.00503 | -119.88512 | 31237 ft | 437 kts | 321° |
| 2026-05-07 09:51 | 40.02809 | -119.91055 | 31543 ft | 439 kts | 321° |
| 2026-05-07 09:51 | 40.05135 | -119.93624 | 31830 ft | 441 kts | 321° |
| 2026-05-07 09:51 | 40.07474 | -119.96209 | 32127 ft | 443 kts | 321° |
| 2026-05-07 09:52 | 40.09817 | -119.98801 | 32416 ft | 445 kts | 321° |
| 2026-05-07 09:52 | 40.12181 | -120.01410 | 32709 ft | 446 kts | 321° |
| 2026-05-07 09:52 | 40.14548 | -120.04015 | 32980 ft | 448 kts | 321° |
| 2026-05-07 09:52 | 40.16922 | -120.06634 | 33237 ft | 450 kts | 321° |
| 2026-05-07 09:53 | 40.19332 | -120.09303 | 33500 ft | 452 kts | 321° |
| 2026-05-07 09:53 | 40.21721 | -120.11955 | 33759 ft | 453 kts | 321° |
| 2026-05-07 09:53 | 40.24104 | -120.14603 | 34002 ft | 455 kts | 321° |
| 2026-05-07 09:53 | 40.26515 | -120.17287 | 34238 ft | 457 kts | 321° |
| 2026-05-07 09:54 | 40.28940 | -120.19991 | 34494 ft | 459 kts | 321° |
| 2026-05-07 09:54 | 40.31370 | -120.22704 | 34775 ft | 460 kts | 321° |
| 2026-05-07 09:54 | 40.33781 | -120.25398 | 35051 ft | 460 kts | 321° |
| 2026-05-07 09:54 | 40.36214 | -120.28094 | 35364 ft | 460 kts | 322° |
| 2026-05-07 09:55 | 40.38735 | -120.30665 | 35654 ft | 460 kts | 325° |
| 2026-05-07 09:55 | 40.41346 | -120.33062 | 35926 ft | 460 kts | 328° |
| 2026-05-07 09:55 | 40.44047 | -120.35292 | 36161 ft | 460 kts | 330° |
| 2026-05-07 09:55 | 40.46808 | -120.37462 | 36266 ft | 462 kts | 330° |
| 2026-05-07 09:56 | 40.49542 | -120.39591 | 36285 ft | 462 kts | 330° |
| 2026-05-07 09:56 | 40.55082 | -120.43903 | 36294 ft | 462 kts | 330° |
| 2026-05-07 09:57 | 40.60589 | -120.48202 | 36302 ft | 462 kts | 330° |
| 2026-05-07 09:57 | 40.66087 | -120.52507 | 36305 ft | 462 kts | 330° |
| 2026-05-07 09:58 | 40.71584 | -120.56822 | 36307 ft | 462 kts | 330° |
| 2026-05-07 09:58 | 40.77094 | -120.61158 | 36308 ft | 462 kts | 330° |
| 2026-05-07 09:59 | 40.82616 | -120.65509 | 36303 ft | 462 kts | 330° |
| 2026-05-07 09:59 | 40.88088 | -120.69861 | 36306 ft | 462 kts | 329° |
| 2026-05-07 10:00 | 40.93594 | -120.74239 | 36311 ft | 462 kts | 329° |
| 2026-05-07 10:00 | 40.99086 | -120.78600 | 36309 ft | 462 kts | 329° |
| 2026-05-07 10:01 | 41.04567 | -120.82957 | 36298 ft | 462 kts | 329° |
| 2026-05-07 10:01 | 41.10054 | -120.87326 | 36293 ft | 462 kts | 329° |
| 2026-05-07 10:02 | 41.15582 | -120.91713 | 36282 ft | 461 kts | 329° |
| 2026-05-07 10:02 | 41.21052 | -120.96067 | 36278 ft | 461 kts | 329° |
| 2026-05-07 10:03 | 41.26556 | -121.00470 | 36274 ft | 462 kts | 329° |
| 2026-05-07 10:03 | 41.32042 | -121.04870 | 36268 ft | 462 kts | 329° |
| 2026-05-07 10:04 | 41.37504 | -121.09258 | 36259 ft | 462 kts | 329° |
| 2026-05-07 10:04 | 41.42980 | -121.13668 | 36250 ft | 461 kts | 329° |
| 2026-05-07 10:05 | 41.48466 | -121.18096 | 36245 ft | 461 kts | 329° |
| 2026-05-07 10:05 | 41.53913 | -121.22501 | 36236 ft | 461 kts | 329° |
| 2026-05-07 10:06 | 41.59401 | -121.26948 | 36237 ft | 461 kts | 329° |
| 2026-05-07 10:06 | 41.64852 | -121.31374 | 36234 ft | 462 kts | 329° |
| 2026-05-07 10:07 | 41.70323 | -121.35826 | 36230 ft | 461 kts | 329° |
| 2026-05-07 10:07 | 41.75794 | -121.40288 | 36226 ft | 460 kts | 329° |
| 2026-05-07 10:08 | 41.81246 | -121.44740 | 36224 ft | 461 kts | 329° |
| 2026-05-07 10:08 | 41.86696 | -121.49200 | 36215 ft | 461 kts | 329° |
| 2026-05-07 10:09 | 41.92147 | -121.53673 | 36211 ft | 461 kts | 329° |
| 2026-05-07 10:09 | 41.97600 | -121.58155 | 36207 ft | 461 kts | 329° |
| 2026-05-07 10:10 | 42.03078 | -121.62667 | 36207 ft | 461 kts | 329° |
| 2026-05-07 10:10 | 42.08525 | -121.67172 | 36194 ft | 461 kts | 328° |
| 2026-05-07 10:11 | 42.14048 | -121.71464 | 36154 ft | 461 kts | 333° |
| 2026-05-07 10:11 | 42.19874 | -121.75041 | 36141 ft | 461 kts | 338° |
| 2026-05-07 10:12 | 42.25858 | -121.78075 | 36182 ft | 461 kts | 339° |
| 2026-05-07 10:12 | 42.31865 | -121.81060 | 36210 ft | 461 kts | 339° |
| 2026-05-07 10:13 | 42.37866 | -121.84049 | 36217 ft | 461 kts | 339° |
| 2026-05-07 10:13 | 42.43876 | -121.87055 | 36216 ft | 461 kts | 339° |
| 2026-05-07 10:14 | 42.49844 | -121.90046 | 36216 ft | 460 kts | 339° |
| 2026-05-07 10:14 | 42.55828 | -121.93053 | 36216 ft | 459 kts | 339° |
| 2026-05-07 10:15 | 42.61820 | -121.96071 | 36215 ft | 459 kts | 339° |
| 2026-05-07 10:15 | 42.67768 | -121.99072 | 36216 ft | 459 kts | 339° |
| 2026-05-07 10:16 | 42.73747 | -122.02095 | 36220 ft | 459 kts | 339° |
| 2026-05-07 10:16 | 42.79717 | -122.05119 | 36229 ft | 459 kts | 339° |
| 2026-05-07 10:17 | 42.85685 | -122.08150 | 36240 ft | 459 kts | 339° |
| 2026-05-07 10:17 | 42.91637 | -122.11180 | 36244 ft | 458 kts | 339° |
| 2026-05-07 10:18 | 42.97604 | -122.14220 | 36247 ft | 458 kts | 339° |
| 2026-05-07 10:18 | 43.03529 | -122.17248 | 36248 ft | 457 kts | 339° |
| 2026-05-07 10:19 | 43.09469 | -122.20288 | 36245 ft | 458 kts | 338° |
| 2026-05-07 10:19 | 43.15420 | -122.23329 | 36236 ft | 458 kts | 338° |
| 2026-05-07 10:20 | 43.21384 | -122.26384 | 36223 ft | 458 kts | 338° |
| 2026-05-07 10:20 | 43.27320 | -122.29436 | 36215 ft | 457 kts | 338° |
| 2026-05-07 10:21 | 43.33233 | -122.32486 | 36203 ft | 456 kts | 338° |
| 2026-05-07 10:21 | 43.36196 | -122.34019 | 35910 ft | 459 kts | 338° |
| 2026-05-07 10:21 | 43.39182 | -122.35565 | 34939 ft | 462 kts | 338° |
| 2026-05-07 10:21 | 43.42177 | -122.37117 | 34200 ft | 461 kts | 338° |
| 2026-05-07 10:22 | 43.45151 | -122.38658 | 33640 ft | 456 kts | 338° |
| 2026-05-07 10:22 | 43.48095 | -122.40185 | 33303 ft | 448 kts | 338° |
| 2026-05-07 10:22 | 43.50983 | -122.41685 | 32921 ft | 442 kts | 338° |
| 2026-05-07 10:22 | 43.53830 | -122.43165 | 32514 ft | 437 kts | 338° |
| 2026-05-07 10:23 | 43.56630 | -122.44624 | 32105 ft | 432 kts | 338° |
| 2026-05-07 10:23 | 43.59415 | -122.46075 | 31705 ft | 427 kts | 338° |
| 2026-05-07 10:23 | 43.62180 | -122.47518 | 31287 ft | 423 kts | 338° |
| 2026-05-07 10:23 | 43.64886 | -122.48932 | 30900 ft | 418 kts | 337° |
| 2026-05-07 10:24 | 43.67586 | -122.50345 | 30505 ft | 414 kts | 337° |
| 2026-05-07 10:24 | 43.70251 | -122.51740 | 30127 ft | 409 kts | 337° |
| 2026-05-07 10:24 | 43.72890 | -122.53124 | 29750 ft | 405 kts | 337° |
| 2026-05-07 10:24 | 43.75499 | -122.54493 | 29374 ft | 401 kts | 337° |
| 2026-05-07 10:25 | 43.78080 | -122.55847 | 28993 ft | 397 kts | 337° |
| 2026-05-07 10:25 | 43.80633 | -122.57190 | 28613 ft | 393 kts | 337° |
| 2026-05-07 10:25 | 43.83171 | -122.58524 | 28238 ft | 389 kts | 337° |
| 2026-05-07 10:25 | 43.85680 | -122.59844 | 27849 ft | 386 kts | 337° |
| 2026-05-07 10:26 | 43.88171 | -122.61156 | 27461 ft | 383 kts | 337° |
| 2026-05-07 10:26 | 43.90640 | -122.62458 | 27083 ft | 380 kts | 336° |
| 2026-05-07 10:26 | 43.93109 | -122.63761 | 26710 ft | 377 kts | 336° |
| 2026-05-07 10:26 | 43.95517 | -122.65034 | 26342 ft | 374 kts | 336° |
| 2026-05-07 10:27 | 43.97935 | -122.66323 | 25970 ft | 371 kts | 335° |
| 2026-05-07 10:27 | 44.00344 | -122.67609 | 25600 ft | 369 kts | 336° |
| 2026-05-07 10:27 | 44.02707 | -122.68868 | 25234 ft | 367 kts | 336° |
| 2026-05-07 10:27 | 44.05069 | -122.70123 | 24861 ft | 364 kts | 336° |
| 2026-05-07 10:28 | 44.07416 | -122.71369 | 24500 ft | 362 kts | 335° |
| 2026-05-07 10:28 | 44.09775 | -122.72621 | 24142 ft | 360 kts | 335° |
| 2026-05-07 10:28 | 44.12085 | -122.73828 | 23784 ft | 359 kts | 338° |
| 2026-05-07 10:28 | 44.14501 | -122.74692 | 23416 ft | 361 kts | 346° |
| 2026-05-07 10:29 | 44.17006 | -122.75058 | 23047 ft | 363 kts | 354° |
| 2026-05-07 10:29 | 44.19506 | -122.74965 | 22699 ft | 364 kts | 359° |
| 2026-05-07 10:29 | 44.22017 | -122.74730 | 22361 ft | 362 kts | 359° |
| 2026-05-07 10:30 | 44.27028 | -122.74215 | 21639 ft | 359 kts | 359° |
| 2026-05-07 10:30 | 44.29493 | -122.73964 | 21294 ft | 357 kts | 359° |
| 2026-05-07 10:30 | 44.31957 | -122.73716 | 20943 ft | 356 kts | 359° |
| 2026-05-07 10:30 | 44.34415 | -122.73470 | 20604 ft | 354 kts | 359° |
| 2026-05-07 10:31 | 44.36871 | -122.73227 | 20267 ft | 352 kts | 359° |
| 2026-05-07 10:31 | 44.39281 | -122.72987 | 19923 ft | 350 kts | 359° |
| 2026-05-07 10:31 | 44.41712 | -122.72745 | 19577 ft | 348 kts | 359° |
| 2026-05-07 10:31 | 44.44110 | -122.72509 | 19246 ft | 346 kts | 359° |
| 2026-05-07 10:32 | 44.46491 | -122.72272 | 18898 ft | 345 kts | 359° |
| 2026-05-07 10:32 | 44.48874 | -122.72034 | 18546 ft | 343 kts | 359° |
| 2026-05-07 10:32 | 44.51241 | -122.71798 | 18197 ft | 342 kts | 359° |
| 2026-05-07 10:32 | 44.53602 | -122.71563 | 17843 ft | 340 kts | 359° |
| 2026-05-07 10:33 | 44.55944 | -122.71329 | 17500 ft | 339 kts | 359° |
| 2026-05-07 10:33 | 44.58288 | -122.71097 | 17160 ft | 338 kts | 359° |
| 2026-05-07 10:33 | 44.60621 | -122.70866 | 16805 ft | 336 kts | 358° |
| 2026-05-07 10:33 | 44.62957 | -122.70635 | 16443 ft | 335 kts | 359° |
| 2026-05-07 10:34 | 44.65262 | -122.70405 | 16110 ft | 334 kts | 359° |
| 2026-05-07 10:34 | 44.67564 | -122.70177 | 15744 ft | 333 kts | 359° |
| 2026-05-07 10:34 | 44.69866 | -122.69946 | 15386 ft | 332 kts | 359° |
| 2026-05-07 10:34 | 44.72172 | -122.69714 | 15050 ft | 331 kts | 359° |
| 2026-05-07 10:35 | 44.74447 | -122.69485 | 14681 ft | 330 kts | 359° |
| 2026-05-07 10:35 | 44.76730 | -122.69255 | 14349 ft | 329 kts | 359° |
| 2026-05-07 10:35 | 44.79002 | -122.69027 | 13961 ft | 327 kts | 359° |
| 2026-05-07 10:35 | 44.81272 | -122.68797 | 13615 ft | 325 kts | 359° |
| 2026-05-07 10:36 | 44.83510 | -122.68571 | 13274 ft | 324 kts | 359° |
| 2026-05-07 10:36 | 44.85751 | -122.68344 | 12929 ft | 322 kts | 359° |
| 2026-05-07 10:36 | 44.87980 | -122.68118 | 12585 ft | 320 kts | 359° |
| 2026-05-07 10:36 | 44.90181 | -122.67894 | 12355 ft | 313 kts | 359° |
| 2026-05-07 10:37 | 44.92287 | -122.67676 | 12281 ft | 300 kts | 359° |
| 2026-05-07 10:37 | 44.94320 | -122.67466 | 12150 ft | 289 kts | 359° |
| 2026-05-07 10:37 | 44.96310 | -122.67156 | 11757 ft | 288 kts | 4° |
| 2026-05-07 10:37 | 44.98265 | -122.66545 | 11340 ft | 289 kts | 10° |
| 2026-05-07 10:38 | 45.00182 | -122.65743 | 10922 ft | 288 kts | 11° |
| 2026-05-07 10:38 | 45.02096 | -122.64904 | 10518 ft | 286 kts | 12° |
| 2026-05-07 10:38 | 45.03970 | -122.64079 | 10109 ft | 284 kts | 12° |
| 2026-05-07 10:38 | 45.05857 | -122.63252 | 9711 ft | 282 kts | 12° |
| 2026-05-07 10:39 | 45.07726 | -122.62435 | 9327 ft | 280 kts | 12° |
| 2026-05-07 10:39 | 45.09560 | -122.61634 | 8949 ft | 278 kts | 12° |
| 2026-05-07 10:39 | 45.11367 | -122.60659 | 8537 ft | 281 kts | 21° |
| 2026-05-07 10:39 | 45.13057 | -122.59250 | 8139 ft | 282 kts | 30° |
| 2026-05-07 10:40 | 45.14650 | -122.57643 | 7747 ft | 281 kts | 31° |
| 2026-05-07 10:40 | 45.16203 | -122.56027 | 7357 ft | 280 kts | 32° |
| 2026-05-07 10:40 | 45.17777 | -122.54381 | 6976 ft | 279 kts | 32° |
| 2026-05-07 10:40 | 45.19316 | -122.52776 | 6602 ft | 277 kts | 32° |
| 2026-05-07 10:41 | 45.20857 | -122.51173 | 6223 ft | 275 kts | 32° |
| 2026-05-07 10:41 | 45.22390 | -122.49582 | 5856 ft | 273 kts | 33° |
| 2026-05-07 10:41 | 45.23906 | -122.48008 | 5498 ft | 271 kts | 33° |
| 2026-05-07 10:41 | 45.25431 | -122.46423 | 5137 ft | 269 kts | 33° |
| 2026-05-07 10:42 | 45.26920 | -122.44876 | 4775 ft | 267 kts | 33° |
| 2026-05-07 10:42 | 45.28406 | -122.43331 | 4412 ft | 265 kts | 34° |
| 2026-05-07 10:42 | 45.29885 | -122.41793 | 4052 ft | 264 kts | 34° |
| 2026-05-07 10:42 | 45.31351 | -122.40265 | 3726 ft | 261 kts | 34° |
| 2026-05-07 10:43 | 45.32803 | -122.38752 | 3656 ft | 260 kts | 34° |
| 2026-05-07 10:43 | 45.34275 | -122.37256 | 3647 ft | 261 kts | 30° |
| 2026-05-07 10:43 | 45.35910 | -122.36114 | 3662 ft | 260 kts | 18° |
| 2026-05-07 10:43 | 45.37615 | -122.35374 | 3663 ft | 259 kts | 14° |
| 2026-05-07 10:44 | 45.39350 | -122.34708 | 3665 ft | 258 kts | 14° |
| 2026-05-07 10:44 | 45.41071 | -122.34044 | 3659 ft | 253 kts | 14° |
| 2026-05-07 10:44 | 45.42705 | -122.33406 | 3660 ft | 237 kts | 14° |
| 2026-05-07 10:44 | 45.44239 | -122.32803 | 3658 ft | 222 kts | 14° |
| 2026-05-07 10:45 | 45.45678 | -122.32239 | 3654 ft | 208 kts | 14° |
| 2026-05-07 10:45 | 45.47042 | -122.31724 | 3659 ft | 200 kts | 8° |
| 2026-05-07 10:45 | 45.48368 | -122.31970 | 3653 ft | 196 kts | 329° |
| 2026-05-07 10:45 | 45.49301 | -122.33340 | 3671 ft | 196 kts | 300° |
| 2026-05-07 10:46 | 45.49972 | -122.35035 | 3562 ft | 199 kts | 299° |
| 2026-05-07 10:46 | 45.50641 | -122.36789 | 3209 ft | 204 kts | 299° |
| 2026-05-07 10:46 | 45.51315 | -122.38557 | 2907 ft | 206 kts | 300° |
| 2026-05-07 10:46 | 45.52001 | -122.40340 | 2630 ft | 206 kts | 300° |
| 2026-05-07 10:47 | 45.52693 | -122.42126 | 2357 ft | 206 kts | 300° |
| 2026-05-07 10:47 | 45.53388 | -122.43915 | 2081 ft | 206 kts | 300° |
| 2026-05-07 10:47 | 45.54074 | -122.45681 | 1820 ft | 203 kts | 300° |
| 2026-05-07 10:47 | 45.54729 | -122.47366 | 1568 ft | 187 kts | 300° |
| 2026-05-07 10:48 | 45.55334 | -122.48921 | 1313 ft | 172 kts | 301° |
| 2026-05-07 10:48 | 45.55888 | -122.50344 | 1081 ft | 158 kts | 301° |
| 2026-05-07 10:48 | 45.56404 | -122.51667 | 887 ft | 152 kts | 301° |
| 2026-05-07 10:48 | 45.56916 | -122.52983 | 693 ft | 152 kts | 300° |
| 2026-05-07 10:49 | 45.57429 | -122.54297 | 490 ft | 151 kts | 300° |
| 2026-05-07 10:49 | 45.57939 | -122.55608 | 286 ft | 151 kts | 300° |
| 2026-05-07 10:49 | 45.58445 | -122.56906 | 80 ft | 151 kts | 300° |
| 2026-05-07 10:49 | 45.58913 | -122.58087 | 48 ft | 107 kts | 301° |
| 2026-05-07 10:50 | 45.59126 | -122.58632 | 48 ft | 32 kts | 298° |
| 2026-05-07 10:50 | 45.59188 | -122.58820 | 48 ft | 11 kts | 289° |
| 2026-05-07 10:50 | 45.59207 | -122.58946 | 48 ft | 13 kts | 278° |
| 2026-05-07 10:50 | 45.59213 | -122.59043 | 48 ft | 8 kts | 271° |
| 2026-05-07 10:51 | 45.59213 | -122.59089 | 48 ft | 2 kts | 270° |
| 2026-05-07 10:51 | 45.59209 | -122.59099 | 48 ft | 2 kts | 231° |
| 2026-05-07 10:51 | 45.59200 | -122.59119 | 48 ft | 8 kts | 248° |
| 2026-05-07 10:51 | 45.59194 | -122.59339 | 48 ft | 28 kts | 285° |
| 2026-05-07 10:52 | 45.59256 | -122.59537 | 50 ft | 20 kts | 297° |
| 2026-05-07 10:52 | 45.59308 | -122.59698 | 51 ft | 15 kts | 288° |
| 2026-05-07 10:52 | 45.59291 | -122.59790 | 51 ft | 9 kts | 232° |
| 2026-05-07 10:52 | 45.59270 | -122.59806 | 50 ft | 3 kts | 165° |
| 2026-05-07 10:53 | 45.59247 | -122.59782 | 50 ft | 6 kts | 137° |
| 2026-05-07 10:53 | 45.59212 | -122.59724 | 49 ft | 5 kts | 129° |
| 2026-05-07 10:53 | 45.59197 | -122.59700 | 49 ft | 0 kts | 132° |